sensor_id;sensor_type;location;lat;lon;timestamp;pressure;altitude;pressure_sealevel;temperature;humidity
16016;BME280;8112;53.592;10.184;2023-07-24T00:02:07;100081.50;;;17.76;100.00
16016;BME280;8112;53.592;10.184;2023-07-24T00:07:10;100083.16;;;17.77;100.00
16016;BME280;8112;53.592;10.184;2023-07-24T00:12:12;100071.56;;;17.87;100.00
16016;BME280;8112;53.592;10.184;2023-07-24T00:17:18;100068.75;;;17.88;100.00
16016;BME280;8112;53.592;10.184;2023-07-24T00:22:21;100058.78;;;17.90;100.00
16016;BME280;8112;53.592;10.184;2023-07-24T00:27:22;100052.53;;;17.81;100.00
16016;BME280;8112;53.592;10.184;2023-07-24T00:32:24;100058.69;;;17.82;100.00
16016;BME280;8112;53.592;10.184;2023-07-24T00:37:27;100056.19;;;17.80;100.00
16016;BME280;8112;53.592;10.184;2023-07-24T00:42:29;100050.03;;;17.80;100.00
16016;BME280;8112;53.592;10.184;2023-07-24T00:47:31;100053.53;;;17.80;100.00
16016;BME280;8112;53.592;10.184;2023-07-24T00:52:34;100048.75;;;17.66;100.00
16016;BME280;8112;53.592;10.184;2023-07-24T00:57:36;100051.94;;;17.51;100.00
16016;BME280;8112;53.592;10.184;2023-07-24T01:02:38;100055.16;;;17.55;100.00
16016;BME280;8112;53.592;10.184;2023-07-24T01:07:41;100063.75;;;17.67;100.00
16016;BME280;8112;53.592;10.184;2023-07-24T01:12:51;100058.50;;;17.75;100.00
16016;BME280;8112;53.592;10.184;2023-07-24T01:17:59;100053.59;;;17.89;100.00
16016;BME280;8112;53.592;10.184;2023-07-24T01:23:14;100061.66;;;17.97;100.00
16016;BME280;8112;53.592;10.184;2023-07-24T01:28:24;100064.72;;;18.02;100.00
16016;BME280;8112;53.592;10.184;2023-07-24T01:33:27;100054.59;;;18.06;100.00
16016;BME280;8112;53.592;10.184;2023-07-24T01:38:31;100048.75;;;18.11;100.00
16016;BME280;8112;53.592;10.184;2023-07-24T01:43:34;100048.09;;;18.08;100.00
16016;BME280;8112;53.592;10.184;2023-07-24T01:48:36;100040.25;;;18.07;100.00
16016;BME280;8112;53.592;10.184;2023-07-24T01:53:38;100039.81;;;18.12;100.00
16016;BME280;8112;53.592;10.184;2023-07-24T01:58:41;100036.75;;;18.06;100.00
16016;BME280;8112;53.592;10.184;2023-07-24T02:03:43;100039.94;;;18.10;100.00
16016;BME280;8112;53.592;10.184;2023-07-24T02:08:46;100033.25;;;18.06;100.00
16016;BME280;8112;53.592;10.184;2023-07-24T02:13:51;100026.00;;;17.98;100.00
16016;BME280;8112;53.592;10.184;2023-07-24T02:18:53;100026.53;;;18.02;100.00
16016;BME280;8112;53.592;10.184;2023-07-24T02:23:54;100028.97;;;18.13;100.00
16016;BME280;8112;53.592;10.184;2023-07-24T02:28:57;100016.78;;;18.11;100.00
16016;BME280;8112;53.592;10.184;2023-07-24T02:33:59;100019.59;;;18.09;100.00
16016;BME280;8112;53.592;10.184;2023-07-24T02:39:01;100022.47;;;18.16;100.00
16016;BME280;8112;53.592;10.184;2023-07-24T02:44:04;100024.16;;;18.17;100.00
16016;BME280;8112;53.592;10.184;2023-07-24T02:49:06;100027.19;;;18.22;100.00
16016;BME280;8112;53.592;10.184;2023-07-24T02:54:07;100040.66;;;18.20;100.00
16016;BME280;8112;53.592;10.184;2023-07-24T02:59:10;100038.31;;;18.17;100.00
16016;BME280;8112;53.592;10.184;2023-07-24T03:04:12;100033.81;;;18.18;100.00
16016;BME280;8112;53.592;10.184;2023-07-24T03:09:14;100020.63;;;18.16;100.00
16016;BME280;8112;53.592;10.184;2023-07-24T03:14:17;100030.41;;;18.07;100.00
16016;BME280;8112;53.592;10.184;2023-07-24T03:19:19;100018.53;;;18.02;100.00
16016;BME280;8112;53.592;10.184;2023-07-24T03:24:20;100025.00;;;17.99;100.00
16016;BME280;8112;53.592;10.184;2023-07-24T03:29:23;100020.44;;;18.09;100.00
16016;BME280;8112;53.592;10.184;2023-07-24T03:34:25;100009.16;;;18.16;100.00
16016;BME280;8112;53.592;10.184;2023-07-24T03:39:27;100007.47;;;18.15;100.00
16016;BME280;8112;53.592;10.184;2023-07-24T03:44:30;99998.69;;;18.22;100.00
16016;BME280;8112;53.592;10.184;2023-07-24T03:49:32;100002.25;;;18.31;100.00
16016;BME280;8112;53.592;10.184;2023-07-24T03:54:33;100005.19;;;18.28;100.00
16016;BME280;8112;53.592;10.184;2023-07-24T03:59:37;99997.56;;;18.33;100.00
16016;BME280;8112;53.592;10.184;2023-07-24T04:04:38;100000.19;;;18.25;100.00
16016;BME280;8112;53.592;10.184;2023-07-24T04:09:40;100009.19;;;18.24;100.00
16016;BME280;8112;53.592;10.184;2023-07-24T04:14:43;100013.53;;;18.25;100.00
16016;BME280;8112;53.592;10.184;2023-07-24T04:19:45;100003.16;;;18.14;100.00
16016;BME280;8112;53.592;10.184;2023-07-24T04:24:46;99999.97;;;18.18;100.00
16016;BME280;8112;53.592;10.184;2023-07-24T04:29:49;99988.69;;;18.25;100.00
16016;BME280;8112;53.592;10.184;2023-07-24T04:34:51;99987.47;;;18.45;100.00
16016;BME280;8112;53.592;10.184;2023-07-24T04:39:53;100001.25;;;18.92;100.00
16016;BME280;8112;53.592;10.184;2023-07-24T04:44:56;99991.94;;;18.96;100.00
16016;BME280;8112;53.592;10.184;2023-07-24T04:49:57;99980.28;;;19.05;100.00
16016;BME280;8112;53.592;10.184;2023-07-24T04:54:59;99970.13;;;19.17;100.00
16016;BME280;8112;53.592;10.184;2023-07-24T05:00:02;99971.63;;;19.12;100.00
16016;BME280;8112;53.592;10.184;2023-07-24T05:05:05;99968.63;;;19.06;100.00
16016;BME280;8112;53.592;10.184;2023-07-24T05:10:07;99967.06;;;18.95;100.00
16016;BME280;8112;53.592;10.184;2023-07-24T05:15:10;99961.41;;;18.90;100.00
16016;BME280;8112;53.592;10.184;2023-07-24T05:20:13;99949.06;;;18.89;100.00
16016;BME280;8112;53.592;10.184;2023-07-24T05:25:15;99940.56;;;19.11;100.00
16016;BME280;8112;53.592;10.184;2023-07-24T05:30:18;99936.06;;;19.36;100.00
16016;BME280;8112;53.592;10.184;2023-07-24T05:35:20;99939.59;;;19.20;100.00
16016;BME280;8112;53.592;10.184;2023-07-24T05:40:22;99937.75;;;19.29;100.00
16016;BME280;8112;53.592;10.184;2023-07-24T05:45:25;99942.25;;;19.12;100.00
16016;BME280;8112;53.592;10.184;2023-07-24T05:50:27;99917.06;;;19.31;100.00
16016;BME280;8112;53.592;10.184;2023-07-24T05:55:29;99915.22;;;19.31;100.00
16016;BME280;8112;53.592;10.184;2023-07-24T06:00:32;99909.53;;;19.34;100.00
16016;BME280;8112;53.592;10.184;2023-07-24T06:05:34;99911.53;;;19.24;100.00
16016;BME280;8112;53.592;10.184;2023-07-24T06:10:35;99905.53;;;19.22;100.00
16016;BME280;8112;53.592;10.184;2023-07-24T06:15:38;99899.50;;;18.95;100.00
16016;BME280;8112;53.592;10.184;2023-07-24T06:20:40;99902.06;;;19.21;100.00
16016;BME280;8112;53.592;10.184;2023-07-24T06:25:42;99905.19;;;19.50;100.00
16016;BME280;8112;53.592;10.184;2023-07-24T06:30:45;99896.25;;;19.74;100.00
16016;BME280;8112;53.592;10.184;2023-07-24T06:35:47;99883.53;;;19.93;100.00
16016;BME280;8112;53.592;10.184;2023-07-24T06:40:49;99887.72;;;19.87;100.00
16016;BME280;8112;53.592;10.184;2023-07-24T06:45:52;99882.53;;;19.86;100.00
16016;BME280;8112;53.592;10.184;2023-07-24T06:50:53;99866.75;;;20.16;100.00
16016;BME280;8112;53.592;10.184;2023-07-24T06:55:55;99868.84;;;20.29;100.00
16016;BME280;8112;53.592;10.184;2023-07-24T07:00:58;99862.13;;;19.93;100.00
16016;BME280;8112;53.592;10.184;2023-07-24T07:06:00;99871.44;;;20.14;100.00
16016;BME280;8112;53.592;10.184;2023-07-24T07:11:02;99872.09;;;20.16;100.00
16016;BME280;8112;53.592;10.184;2023-07-24T07:16:05;99863.34;;;20.22;100.00
16016;BME280;8112;53.592;10.184;2023-07-24T07:21:07;99866.88;;;20.22;100.00
16016;BME280;8112;53.592;10.184;2023-07-24T07:26:08;99865.44;;;20.03;100.00
16016;BME280;8112;53.592;10.184;2023-07-24T07:31:11;99860.81;;;19.97;100.00
16016;BME280;8112;53.592;10.184;2023-07-24T07:36:13;99859.44;;;20.01;100.00
16016;BME280;8112;53.592;10.184;2023-07-24T07:41:15;99865.97;;;19.90;100.00
16016;BME280;8112;53.592;10.184;2023-07-24T07:46:18;99864.47;;;19.88;100.00
16016;BME280;8112;53.592;10.184;2023-07-24T07:51:20;99864.78;;;20.01;100.00
16016;BME280;8112;53.592;10.184;2023-07-24T07:56:22;99860.50;;;20.24;100.00
16016;BME280;8112;53.592;10.184;2023-07-24T08:01:25;99851.78;;;20.30;100.00
16016;BME280;8112;53.592;10.184;2023-07-24T08:06:26;99850.38;;;20.42;100.00
16016;BME280;8112;53.592;10.184;2023-07-24T08:11:28;99836.53;;;20.62;100.00
16016;BME280;8112;53.592;10.184;2023-07-24T08:16:31;99836.22;;;21.18;100.00
16016;BME280;8112;53.592;10.184;2023-07-24T08:21:32;99821.81;;;21.19;100.00
16016;BME280;8112;53.592;10.184;2023-07-24T08:26:34;99828.66;;;21.07;100.00
16016;BME280;8112;53.592;10.184;2023-07-24T08:31:37;99837.53;;;21.23;100.00
16016;BME280;8112;53.592;10.184;2023-07-24T08:36:39;99816.19;;;21.29;100.00
16016;BME280;8112;53.592;10.184;2023-07-24T08:41:40;99822.22;;;21.76;100.00
16016;BME280;8112;53.592;10.184;2023-07-24T08:46:44;99818.06;;;21.74;100.00
16016;BME280;8112;53.592;10.184;2023-07-24T08:51:47;99807.06;;;21.39;100.00
16016;BME280;8112;53.592;10.184;2023-07-24T08:56:50;99818.78;;;21.38;100.00
16016;BME280;8112;53.592;10.184;2023-07-24T09:01:53;99812.03;;;21.27;100.00
16016;BME280;8112;53.592;10.184;2023-07-24T09:06:56;99807.59;;;21.64;100.00
16016;BME280;8112;53.592;10.184;2023-07-24T09:11:58;99813.31;;;22.28;100.00
16016;BME280;8112;53.592;10.184;2023-07-24T09:17:05;99794.56;;;22.49;100.00
16016;BME280;8112;53.592;10.184;2023-07-24T09:22:11;99801.59;;;23.01;100.00
16016;BME280;8112;53.592;10.184;2023-07-24T09:27:14;99806.72;;;23.24;100.00
16016;BME280;8112;53.592;10.184;2023-07-24T09:32:21;99799.94;;;23.00;100.00
16016;BME280;8112;53.592;10.184;2023-07-24T09:37:24;99803.97;;;22.89;100.00
16016;BME280;8112;53.592;10.184;2023-07-24T09:42:31;99800.22;;;23.12;100.00
16016;BME280;8112;53.592;10.184;2023-07-24T09:47:34;99781.69;;;23.52;100.00
16016;BME280;8112;53.592;10.184;2023-07-24T09:52:37;99782.78;;;23.71;100.00
16016;BME280;8112;53.592;10.184;2023-07-24T09:57:44;99769.34;;;23.71;100.00
16016;BME280;8112;53.592;10.184;2023-07-24T10:02:48;99767.78;;;23.13;100.00
16016;BME280;8112;53.592;10.184;2023-07-24T10:07:51;99756.72;;;22.95;100.00
16016;BME280;8112;53.592;10.184;2023-07-24T10:12:53;99749.94;;;23.34;100.00
16016;BME280;8112;53.592;10.184;2023-07-24T10:18:02;99759.22;;;23.31;100.00
16016;BME280;8112;53.592;10.184;2023-07-24T10:23:06;99779.06;;;23.02;100.00
16016;BME280;8112;53.592;10.184;2023-07-24T10:28:09;99768.22;;;23.17;100.00
16016;BME280;8112;53.592;10.184;2023-07-24T10:33:17;99772.16;;;23.49;100.00
16016;BME280;8112;53.592;10.184;2023-07-24T10:38:19;99766.91;;;23.34;100.00
16016;BME280;8112;53.592;10.184;2023-07-24T10:43:21;99757.50;;;23.24;100.00
16016;BME280;8112;53.592;10.184;2023-07-24T10:48:25;99756.94;;;23.70;100.00
16016;BME280;8112;53.592;10.184;2023-07-24T10:53:27;99759.75;;;23.48;100.00
16016;BME280;8112;53.592;10.184;2023-07-24T10:58:29;99754.63;;;23.60;100.00
16016;BME280;8112;53.592;10.184;2023-07-24T11:03:35;99763.88;;;23.44;100.00
16016;BME280;8112;53.592;10.184;2023-07-24T11:08:37;99755.03;;;23.22;100.00
16016;BME280;8112;53.592;10.184;2023-07-24T11:13:40;99756.75;;;23.01;100.00
16016;BME280;8112;53.592;10.184;2023-07-24T11:18:48;99747.94;;;24.05;100.00
16016;BME280;8112;53.592;10.184;2023-07-24T11:23:53;99742.56;;;24.12;100.00
16016;BME280;8112;53.592;10.184;2023-07-24T11:28:55;99734.16;;;23.66;100.00
16016;BME280;8112;53.592;10.184;2023-07-24T11:33:58;99722.31;;;24.36;100.00
16016;BME280;8112;53.592;10.184;2023-07-24T11:39:00;99721.63;;;24.00;100.00
16016;BME280;8112;53.592;10.184;2023-07-24T11:44:04;99729.47;;;23.82;100.00
16016;BME280;8112;53.592;10.184;2023-07-24T11:49:07;99727.47;;;23.13;100.00
16016;BME280;8112;53.592;10.184;2023-07-24T11:54:11;99727.56;;;22.91;100.00
16016;BME280;8112;53.592;10.184;2023-07-24T11:59:14;99723.41;;;23.24;100.00
16016;BME280;8112;53.592;10.184;2023-07-24T12:04:17;99704.09;;;24.31;100.00
16016;BME280;8112;53.592;10.184;2023-07-24T12:09:19;99709.63;;;25.04;100.00
16016;BME280;8112;53.592;10.184;2023-07-24T12:14:21;99693.94;;;24.81;100.00
16016;BME280;8112;53.592;10.184;2023-07-24T12:19:24;99691.75;;;25.23;100.00
16016;BME280;8112;53.592;10.184;2023-07-24T12:24:25;99682.75;;;25.50;100.00
16016;BME280;8112;53.592;10.184;2023-07-24T12:29:27;99681.28;;;24.81;100.00
16016;BME280;8112;53.592;10.184;2023-07-24T12:34:30;99685.00;;;24.67;100.00
16016;BME280;8112;53.592;10.184;2023-07-24T12:39:32;99686.66;;;24.74;100.00
16016;BME280;8112;53.592;10.184;2023-07-24T12:44:33;99683.34;;;24.72;100.00
16016;BME280;8112;53.592;10.184;2023-07-24T12:49:37;99672.81;;;24.64;100.00
16016;BME280;8112;53.592;10.184;2023-07-24T12:54:38;99659.41;;;25.16;100.00
16016;BME280;8112;53.592;10.184;2023-07-24T12:59:40;99666.75;;;24.96;100.00
16016;BME280;8112;53.592;10.184;2023-07-24T13:04:43;99649.22;;;25.25;100.00
16016;BME280;8112;53.592;10.184;2023-07-24T13:09:45;99640.53;;;25.23;100.00
16016;BME280;8112;53.592;10.184;2023-07-24T13:14:46;99639.06;;;25.27;100.00
16016;BME280;8112;53.592;10.184;2023-07-24T13:19:49;99617.38;;;25.80;100.00
16016;BME280;8112;53.592;10.184;2023-07-24T13:24:51;99622.47;;;25.95;100.00
16016;BME280;8112;53.592;10.184;2023-07-24T13:29:53;99608.66;;;25.84;100.00
16016;BME280;8112;53.592;10.184;2023-07-24T13:34:56;99621.53;;;25.82;100.00
16016;BME280;8112;53.592;10.184;2023-07-24T13:39:59;99605.50;;;26.13;100.00
16016;BME280;8112;53.592;10.184;2023-07-24T13:45:01;99620.13;;;26.30;100.00
16016;BME280;8112;53.592;10.184;2023-07-24T13:50:05;99610.13;;;25.80;100.00
16016;BME280;8112;53.592;10.184;2023-07-24T13:55:07;99606.03;;;25.39;100.00
16016;BME280;8112;53.592;10.184;2023-07-24T14:00:10;99603.34;;;24.86;100.00
16016;BME280;8112;53.592;10.184;2023-07-24T14:05:17;99598.81;;;24.67;100.00
16016;BME280;8112;53.592;10.184;2023-07-24T14:10:19;99593.00;;;24.70;100.00
16016;BME280;8112;53.592;10.184;2023-07-24T14:15:21;99583.69;;;25.25;100.00
16016;BME280;8112;53.592;10.184;2023-07-24T14:20:24;99567.56;;;25.82;100.00
16016;BME280;8112;53.592;10.184;2023-07-24T14:25:25;99557.28;;;26.23;100.00
16016;BME280;8112;53.592;10.184;2023-07-24T14:30:27;99555.91;;;26.70;100.00
16016;BME280;8112;53.592;10.184;2023-07-24T14:35:30;99554.31;;;25.81;100.00
16016;BME280;8112;53.592;10.184;2023-07-24T14:40:32;99545.16;;;25.82;100.00
16016;BME280;8112;53.592;10.184;2023-07-24T14:45:34;99539.44;;;25.07;100.00
16016;BME280;8112;53.592;10.184;2023-07-24T14:50:37;99543.91;;;24.68;100.00
16016;BME280;8112;53.592;10.184;2023-07-24T14:55:38;99548.53;;;24.47;100.00
16016;BME280;8112;53.592;10.184;2023-07-24T15:00:40;99536.22;;;24.12;100.00
16016;BME280;8112;53.592;10.184;2023-07-24T15:05:43;99521.09;;;23.77;100.00
16016;BME280;8112;53.592;10.184;2023-07-24T15:10:45;99510.78;;;23.54;100.00
16016;BME280;8112;53.592;10.184;2023-07-24T15:15:47;99504.75;;;23.59;100.00
16016;BME280;8112;53.592;10.184;2023-07-24T15:20:50;99519.84;;;23.73;100.00
16016;BME280;8112;53.592;10.184;2023-07-24T15:25:51;99512.38;;;23.35;100.00
16016;BME280;8112;53.592;10.184;2023-07-24T15:30:53;99517.50;;;23.16;100.00
16016;BME280;8112;53.592;10.184;2023-07-24T15:35:56;99520.66;;;23.27;100.00
16016;BME280;8112;53.592;10.184;2023-07-24T15:40:58;99519.63;;;23.28;100.00
16016;BME280;8112;53.592;10.184;2023-07-24T15:46:00;99594.47;;;22.47;100.00
16016;BME280;8112;53.592;10.184;2023-07-24T15:51:03;99600.56;;;20.05;100.00
16016;BME280;8112;53.592;10.184;2023-07-24T15:56:04;99626.00;;;19.14;100.00
16016;BME280;8112;53.592;10.184;2023-07-24T16:01:07;99629.56;;;18.17;100.00
16016;BME280;8112;53.592;10.184;2023-07-24T16:06:10;99628.78;;;17.40;100.00
16016;BME280;8112;53.592;10.184;2023-07-24T16:11:12;99640.78;;;17.44;100.00
16016;BME280;8112;53.592;10.184;2023-07-24T16:16:13;99639.63;;;17.63;100.00
16016;BME280;8112;53.592;10.184;2023-07-24T16:21:16;99658.09;;;17.40;100.00
16016;BME280;8112;53.592;10.184;2023-07-24T16:26:18;99672.25;;;17.06;100.00
16016;BME280;8112;53.592;10.184;2023-07-24T16:31:20;99697.91;;;17.15;100.00
16016;BME280;8112;53.592;10.184;2023-07-24T16:36:23;99727.72;;;17.19;100.00
16016;BME280;8112;53.592;10.184;2023-07-24T16:41:25;99755.78;;;17.13;100.00
16016;BME280;8112;53.592;10.184;2023-07-24T16:46:26;99744.81;;;17.16;100.00
16016;BME280;8112;53.592;10.184;2023-07-24T16:51:29;99744.81;;;17.16;100.00
16016;BME280;8112;53.592;10.184;2023-07-24T16:56:31;99735.94;;;17.07;100.00
16016;BME280;8112;53.592;10.184;2023-07-24T17:01:34;99724.16;;;17.10;100.00
16016;BME280;8112;53.592;10.184;2023-07-24T17:06:37;99710.72;;;17.12;100.00
16016;BME280;8112;53.592;10.184;2023-07-24T17:11:39;99700.84;;;17.04;100.00
16016;BME280;8112;53.592;10.184;2023-07-24T17:16:40;99701.31;;;16.99;100.00
16016;BME280;8112;53.592;10.184;2023-07-24T17:21:43;99684.50;;;16.99;100.00
16016;BME280;8112;53.592;10.184;2023-07-24T17:26:45;99700.56;;;17.15;100.00
16016;BME280;8112;53.592;10.184;2023-07-24T17:31:47;99722.25;;;17.20;100.00
16016;BME280;8112;53.592;10.184;2023-07-24T17:36:50;99759.88;;;17.34;100.00
16016;BME280;8112;53.592;10.184;2023-07-24T17:41:51;99769.66;;;17.25;100.00
16016;BME280;8112;53.592;10.184;2023-07-24T17:46:53;99788.28;;;16.99;100.00
16016;BME280;8112;53.592;10.184;2023-07-24T17:51:56;99788.28;;;16.99;100.00
16016;BME280;8112;53.592;10.184;2023-07-24T17:56:58;99798.19;;;16.88;100.00
16016;BME280;8112;53.592;10.184;2023-07-24T18:01:59;99800.38;;;16.93;100.00
16016;BME280;8112;53.592;10.184;2023-07-24T18:07:03;99774.75;;;16.92;100.00
16016;BME280;8112;53.592;10.184;2023-07-24T18:12:06;99760.69;;;17.00;100.00
16016;BME280;8112;53.592;10.184;2023-07-24T18:17:07;99754.00;;;17.22;100.00
16016;BME280;8112;53.592;10.184;2023-07-24T18:22:10;99744.03;;;17.24;100.00
16016;BME280;8112;53.592;10.184;2023-07-24T18:27:13;99731.19;;;17.19;100.00
16016;BME280;8112;53.592;10.184;2023-07-24T18:32:14;99733.91;;;17.28;100.00
16016;BME280;8112;53.592;10.184;2023-07-24T18:37:18;99739.47;;;17.43;100.00
16016;BME280;8112;53.592;10.184;2023-07-24T18:42:19;99733.56;;;17.22;100.00
16016;BME280;8112;53.592;10.184;2023-07-24T18:47:21;99752.44;;;17.11;100.00
16016;BME280;8112;53.592;10.184;2023-07-24T18:52:24;99760.09;;;16.88;100.00
16016;BME280;8112;53.592;10.184;2023-07-24T18:57:25;99762.16;;;16.76;100.00
16016;BME280;8112;53.592;10.184;2023-07-24T19:02:27;99767.06;;;16.89;100.00
16016;BME280;8112;53.592;10.184;2023-07-24T19:07:30;99772.03;;;16.84;100.00
16016;BME280;8112;53.592;10.184;2023-07-24T19:12:32;99784.03;;;16.88;100.00
16016;BME280;8112;53.592;10.184;2023-07-24T19:17:34;99787.59;;;16.96;100.00
16016;BME280;8112;53.592;10.184;2023-07-24T19:22:37;99800.22;;;16.94;100.00
16016;BME280;8112;53.592;10.184;2023-07-24T19:27:39;99816.50;;;16.73;100.00
16016;BME280;8112;53.592;10.184;2023-07-24T19:32:41;99821.00;;;16.73;100.00
16016;BME280;8112;53.592;10.184;2023-07-24T19:37:44;99817.72;;;16.79;100.00
16016;BME280;8112;53.592;10.184;2023-07-24T19:42:46;99832.91;;;16.87;100.00
16016;BME280;8112;53.592;10.184;2023-07-24T19:47:48;99829.44;;;16.86;100.00
16016;BME280;8112;53.592;10.184;2023-07-24T19:52:51;99835.81;;;16.93;100.00
16016;BME280;8112;53.592;10.184;2023-07-24T19:57:53;99843.41;;;16.88;100.00
16016;BME280;8112;53.592;10.184;2023-07-24T20:02:55;99847.75;;;16.89;100.00
16016;BME280;8112;53.592;10.184;2023-07-24T20:07:58;99864.78;;;16.78;100.00
16016;BME280;8112;53.592;10.184;2023-07-24T20:12:59;99869.25;;;16.96;100.00
16016;BME280;8112;53.592;10.184;2023-07-24T20:18:01;99869.22;;;17.06;100.00
16016;BME280;8112;53.592;10.184;2023-07-24T20:23:04;99875.53;;;17.05;100.00
16016;BME280;8112;53.592;10.184;2023-07-24T20:28:06;99871.06;;;16.95;100.00
16016;BME280;8112;53.592;10.184;2023-07-24T20:33:08;99880.00;;;17.04;100.00
16016;BME280;8112;53.592;10.184;2023-07-24T20:38:21;99888.66;;;17.06;100.00
16016;BME280;8112;53.592;10.184;2023-07-24T20:43:23;99886.22;;;16.95;100.00
16016;BME280;8112;53.592;10.184;2023-07-24T20:48:25;99891.09;;;16.81;100.00
16016;BME280;8112;53.592;10.184;2023-07-24T20:53:29;99916.41;;;16.86;100.00
16016;BME280;8112;53.592;10.184;2023-07-24T20:58:36;99912.75;;;16.69;100.00
16016;BME280;8112;53.592;10.184;2023-07-24T21:03:42;99926.34;;;16.65;100.00
16016;BME280;8112;53.592;10.184;2023-07-24T21:08:46;99931.88;;;16.54;100.00
16016;BME280;8112;53.592;10.184;2023-07-24T21:13:53;99932.75;;;16.45;100.00
16016;BME280;8112;53.592;10.184;2023-07-24T21:18:54;99939.53;;;16.39;100.00
16016;BME280;8112;53.592;10.184;2023-07-24T21:23:59;99946.22;;;16.43;100.00
16016;BME280;8112;53.592;10.184;2023-07-24T21:29:00;99940.66;;;16.36;100.00
16016;BME280;8112;53.592;10.184;2023-07-24T21:34:02;99947.13;;;16.24;100.00
16016;BME280;8112;53.592;10.184;2023-07-24T21:39:05;99952.44;;;16.24;100.00
16016;BME280;8112;53.592;10.184;2023-07-24T21:44:08;99950.03;;;16.31;100.00
16016;BME280;8112;53.592;10.184;2023-07-24T21:49:09;99952.66;;;16.13;100.00
16016;BME280;8112;53.592;10.184;2023-07-24T21:54:12;99944.22;;;16.17;100.00
16016;BME280;8112;53.592;10.184;2023-07-24T21:59:14;99944.78;;;16.21;100.00
16016;BME280;8112;53.592;10.184;2023-07-24T22:04:16;99945.91;;;16.18;100.00
16016;BME280;8112;53.592;10.184;2023-07-24T22:09:19;99943.19;;;16.00;100.00
16016;BME280;8112;53.592;10.184;2023-07-24T22:14:21;99942.78;;;15.85;100.00
16016;BME280;8112;53.592;10.184;2023-07-24T22:19:22;99942.97;;;15.74;100.00
16016;BME280;8112;53.592;10.184;2023-07-24T22:24:25;99953.19;;;15.68;100.00
16016;BME280;8112;53.592;10.184;2023-07-24T22:29:27;99967.00;;;15.72;100.00
16016;BME280;8112;53.592;10.184;2023-07-24T22:34:29;99974.25;;;15.80;100.00
16016;BME280;8112;53.592;10.184;2023-07-24T22:39:32;99973.53;;;15.88;100.00
16016;BME280;8112;53.592;10.184;2023-07-24T22:44:34;99972.16;;;15.74;100.00
16016;BME280;8112;53.592;10.184;2023-07-24T22:49:35;99979.72;;;15.78;100.00
16016;BME280;8112;53.592;10.184;2023-07-24T22:54:38;99985.34;;;15.65;100.00
16016;BME280;8112;53.592;10.184;2023-07-24T22:59:40;99986.44;;;15.63;100.00
16016;BME280;8112;53.592;10.184;2023-07-24T23:04:42;99983.41;;;15.48;100.00
16016;BME280;8112;53.592;10.184;2023-07-24T23:09:45;99986.88;;;15.58;100.00
16016;BME280;8112;53.592;10.184;2023-07-24T23:14:46;99986.88;;;15.58;100.00
16016;BME280;8112;53.592;10.184;2023-07-24T23:19:48;99978.63;;;15.51;100.00
16016;BME280;8112;53.592;10.184;2023-07-24T23:24:51;99985.63;;;15.43;100.00
16016;BME280;8112;53.592;10.184;2023-07-24T23:29:53;99991.50;;;15.27;100.00
16016;BME280;8112;53.592;10.184;2023-07-24T23:34:55;99995.13;;;15.06;100.00
16016;BME280;8112;53.592;10.184;2023-07-24T23:39:58;99991.78;;;15.04;100.00
16016;BME280;8112;53.592;10.184;2023-07-24T23:44:59;99992.31;;;14.98;100.00
16016;BME280;8112;53.592;10.184;2023-07-24T23:50:01;99996.78;;;14.97;100.00
16016;BME280;8112;53.592;10.184;2023-07-24T23:55:05;100001.94;;;14.89;100.00
